sensor_id;sensor_type;location;lat;lon;timestamp;P1;durP1;ratioP1;P2;durP2;ratioP2
42978;SDS011;28616;44.746;19.678;2023-01-26T00:00:47;60.67;;;30.15;;
42978;SDS011;28616;44.746;19.678;2023-01-26T00:03:13;58.30;;;28.77;;
42978;SDS011;28616;44.746;19.678;2023-01-26T00:05:39;50.63;;;26.10;;
42978;SDS011;28616;44.746;19.678;2023-01-26T00:08:05;55.60;;;23.60;;
42978;SDS011;28616;44.746;19.678;2023-01-26T00:10:34;51.47;;;23.42;;
42978;SDS011;28616;44.746;19.678;2023-01-26T00:13:04;55.25;;;26.52;;
42978;SDS011;28616;44.746;19.678;2023-01-26T00:15:31;60.55;;;30.05;;
42978;SDS011;28616;44.746;19.678;2023-01-26T00:17:58;60.33;;;26.77;;
42978;SDS011;28616;44.746;19.678;2023-01-26T00:20:24;58.83;;;27.15;;
42978;SDS011;28616;44.746;19.678;2023-01-26T00:22:50;67.05;;;33.88;;
42978;SDS011;28616;44.746;19.678;2023-01-26T00:25:16;61.00;;;30.90;;
42978;SDS011;28616;44.746;19.678;2023-01-26T00:27:42;57.72;;;28.52;;
42978;SDS011;28616;44.746;19.678;2023-01-26T00:30:08;62.25;;;29.08;;
42978;SDS011;28616;44.746;19.678;2023-01-26T00:32:34;65.97;;;32.55;;
42978;SDS011;28616;44.746;19.678;2023-01-26T00:35:00;63.17;;;30.52;;
42978;SDS011;28616;44.746;19.678;2023-01-26T00:37:26;61.13;;;29.80;;
42978;SDS011;28616;44.746;19.678;2023-01-26T00:39:52;53.47;;;27.15;;
42978;SDS011;28616;44.746;19.678;2023-01-26T00:42:18;68.20;;;30.40;;
42978;SDS011;28616;44.746;19.678;2023-01-26T00:44:44;75.88;;;35.15;;
42978;SDS011;28616;44.746;19.678;2023-01-26T00:47:11;82.40;;;38.53;;
42978;SDS011;28616;44.746;19.678;2023-01-26T00:49:37;87.68;;;41.83;;
42978;SDS011;28616;44.746;19.678;2023-01-26T00:52:03;98.18;;;44.97;;
42978;SDS011;28616;44.746;19.678;2023-01-26T00:54:29;75.68;;;32.85;;
42978;SDS011;28616;44.746;19.678;2023-01-26T00:56:55;71.78;;;31.42;;
42978;SDS011;28616;44.746;19.678;2023-01-26T00:59:21;101.47;;;40.88;;
42978;SDS011;28616;44.746;19.678;2023-01-26T01:01:47;83.65;;;38.22;;
42978;SDS011;28616;44.746;19.678;2023-01-26T01:04:14;93.00;;;40.00;;
42978;SDS011;28616;44.746;19.678;2023-01-26T01:06:40;65.72;;;31.13;;
42978;SDS011;28616;44.746;19.678;2023-01-26T01:09:07;49.15;;;23.10;;
42978;SDS011;28616;44.746;19.678;2023-01-26T01:11:32;47.42;;;21.20;;
42978;SDS011;28616;44.746;19.678;2023-01-26T01:13:59;44.17;;;21.25;;
42978;SDS011;28616;44.746;19.678;2023-01-26T01:16:25;43.95;;;19.98;;
42978;SDS011;28616;44.746;19.678;2023-01-26T01:18:52;59.75;;;24.45;;
42978;SDS011;28616;44.746;19.678;2023-01-26T01:21:19;57.42;;;24.75;;
42978;SDS011;28616;44.746;19.678;2023-01-26T01:23:46;53.42;;;22.88;;
42978;SDS011;28616;44.746;19.678;2023-01-26T01:26:12;39.25;;;18.42;;
42978;SDS011;28616;44.746;19.678;2023-01-26T01:28:39;42.50;;;18.73;;
42978;SDS011;28616;44.746;19.678;2023-01-26T01:31:07;37.65;;;17.55;;
42978;SDS011;28616;44.746;19.678;2023-01-26T01:33:37;51.08;;;22.35;;
42978;SDS011;28616;44.746;19.678;2023-01-26T01:36:07;53.20;;;23.00;;
42978;SDS011;28616;44.746;19.678;2023-01-26T01:38:36;45.67;;;21.67;;
42978;SDS011;28616;44.746;19.678;2023-01-26T01:41:01;47.10;;;19.70;;
42978;SDS011;28616;44.746;19.678;2023-01-26T01:43:27;51.30;;;23.40;;
42978;SDS011;28616;44.746;19.678;2023-01-26T01:45:54;58.40;;;28.20;;
42978;SDS011;28616;44.746;19.678;2023-01-26T01:50:52;66.30;;;34.35;;
42978;SDS011;28616;44.746;19.678;2023-01-26T01:53:23;58.42;;;30.95;;
42978;SDS011;28616;44.746;19.678;2023-01-26T01:55:57;56.25;;;27.55;;
42978;SDS011;28616;44.746;19.678;2023-01-26T01:58:26;49.35;;;28.55;;
42978;SDS011;28616;44.746;19.678;2023-01-26T02:00:55;48.35;;;24.67;;
42978;SDS011;28616;44.746;19.678;2023-01-26T02:03:23;55.95;;;26.77;;
42978;SDS011;28616;44.746;19.678;2023-01-26T02:05:54;58.05;;;28.25;;
42978;SDS011;28616;44.746;19.678;2023-01-26T02:08:34;44.50;;;23.08;;
42978;SDS011;28616;44.746;19.678;2023-01-26T02:11:10;47.08;;;23.13;;
42978;SDS011;28616;44.746;19.678;2023-01-26T02:14:06;42.75;;;19.95;;
42978;SDS011;28616;44.746;19.678;2023-01-26T02:19:00;32.97;;;16.00;;
42978;SDS011;28616;44.746;19.678;2023-01-26T02:21:26;40.60;;;18.30;;
42978;SDS011;28616;44.746;19.678;2023-01-26T02:26:33;41.97;;;21.70;;
42978;SDS011;28616;44.746;19.678;2023-01-26T02:29:00;45.15;;;22.77;;
42978;SDS011;28616;44.746;19.678;2023-01-26T02:31:27;43.90;;;19.35;;
42978;SDS011;28616;44.746;19.678;2023-01-26T02:33:53;57.92;;;22.65;;
42978;SDS011;28616;44.746;19.678;2023-01-26T02:36:27;50.45;;;24.58;;
42978;SDS011;28616;44.746;19.678;2023-01-26T02:39:40;42.60;;;23.02;;
42978;SDS011;28616;44.746;19.678;2023-01-26T02:41:58;59.03;;;24.17;;
42978;SDS011;28616;44.746;19.678;2023-01-26T02:44:42;47.10;;;18.75;;
42978;SDS011;28616;44.746;19.678;2023-01-26T02:47:12;41.13;;;17.55;;
42978;SDS011;28616;44.746;19.678;2023-01-26T02:49:40;42.53;;;19.02;;
42978;SDS011;28616;44.746;19.678;2023-01-26T02:52:12;41.22;;;17.70;;
42978;SDS011;28616;44.746;19.678;2023-01-26T02:54:42;40.17;;;18.08;;
42978;SDS011;28616;44.746;19.678;2023-01-26T02:57:26;36.10;;;15.38;;
42978;SDS011;28616;44.746;19.678;2023-01-26T02:59:51;44.90;;;17.83;;
42978;SDS011;28616;44.746;19.678;2023-01-26T03:02:17;44.50;;;14.80;;
42978;SDS011;28616;44.746;19.678;2023-01-26T03:04:43;34.00;;;15.15;;
42978;SDS011;28616;44.746;19.678;2023-01-26T03:07:09;27.63;;;12.57;;
42978;SDS011;28616;44.746;19.678;2023-01-26T03:09:35;31.27;;;12.48;;
42978;SDS011;28616;44.746;19.678;2023-01-26T03:12:01;32.95;;;11.95;;
42978;SDS011;28616;44.746;19.678;2023-01-26T03:14:27;36.25;;;12.88;;
42978;SDS011;28616;44.746;19.678;2023-01-26T03:16:53;45.53;;;12.70;;
42978;SDS011;28616;44.746;19.678;2023-01-26T03:19:20;34.22;;;12.57;;
42978;SDS011;28616;44.746;19.678;2023-01-26T03:22:04;45.80;;;14.85;;
42978;SDS011;28616;44.746;19.678;2023-01-26T03:24:48;35.08;;;11.88;;
42978;SDS011;28616;44.746;19.678;2023-01-26T03:27:35;31.70;;;10.70;;
42978;SDS011;28616;44.746;19.678;2023-01-26T03:30:08;25.70;;;9.73;;
42978;SDS011;28616;44.746;19.678;2023-01-26T03:32:34;26.63;;;10.20;;
42978;SDS011;28616;44.746;19.678;2023-01-26T03:35:00;30.10;;;11.13;;
42978;SDS011;28616;44.746;19.678;2023-01-26T03:37:25;28.80;;;11.10;;
42978;SDS011;28616;44.746;19.678;2023-01-26T03:39:51;29.30;;;11.18;;
42978;SDS011;28616;44.746;19.678;2023-01-26T03:42:35;29.92;;;12.18;;
42978;SDS011;28616;44.746;19.678;2023-01-26T03:45:20;28.83;;;12.43;;
42978;SDS011;28616;44.746;19.678;2023-01-26T03:48:05;33.72;;;12.35;;
42978;SDS011;28616;44.746;19.678;2023-01-26T03:50:52;26.15;;;11.70;;
42978;SDS011;28616;44.746;19.678;2023-01-26T03:53:36;28.50;;;10.65;;
42978;SDS011;28616;44.746;19.678;2023-01-26T03:56:20;32.00;;;14.55;;
42978;SDS011;28616;44.746;19.678;2023-01-26T03:58:47;28.90;;;14.27;;
42978;SDS011;28616;44.746;19.678;2023-01-26T04:01:18;25.15;;;12.88;;
42978;SDS011;28616;44.746;19.678;2023-01-26T04:03:48;38.55;;;16.15;;
42978;SDS011;28616;44.746;19.678;2023-01-26T04:06:34;36.92;;;16.15;;
42978;SDS011;28616;44.746;19.678;2023-01-26T04:09:19;40.25;;;14.95;;
42978;SDS011;28616;44.746;19.678;2023-01-26T04:11:45;33.58;;;14.95;;
42978;SDS011;28616;44.746;19.678;2023-01-26T04:14:12;33.78;;;15.57;;
42978;SDS011;28616;44.746;19.678;2023-01-26T04:16:58;40.60;;;16.73;;
42978;SDS011;28616;44.746;19.678;2023-01-26T04:19:43;41.63;;;16.83;;
42978;SDS011;28616;44.746;19.678;2023-01-26T04:22:28;34.13;;;15.45;;
42978;SDS011;28616;44.746;19.678;2023-01-26T04:24:54;38.38;;;16.15;;
42978;SDS011;28616;44.746;19.678;2023-01-26T04:27:21;37.03;;;16.23;;
42978;SDS011;28616;44.746;19.678;2023-01-26T04:29:47;37.33;;;16.23;;
42978;SDS011;28616;44.746;19.678;2023-01-26T04:32:13;28.27;;;13.45;;
42978;SDS011;28616;44.746;19.678;2023-01-26T04:34:39;27.85;;;13.02;;
42978;SDS011;28616;44.746;19.678;2023-01-26T04:37:05;22.50;;;11.38;;
42978;SDS011;28616;44.746;19.678;2023-01-26T04:39:32;24.10;;;12.90;;
42978;SDS011;28616;44.746;19.678;2023-01-26T04:41:58;25.80;;;12.82;;
42978;SDS011;28616;44.746;19.678;2023-01-26T04:44:23;23.40;;;10.07;;
42978;SDS011;28616;44.746;19.678;2023-01-26T04:46:49;20.48;;;10.68;;
42978;SDS011;28616;44.746;19.678;2023-01-26T04:49:15;21.17;;;9.63;;
42978;SDS011;28616;44.746;19.678;2023-01-26T04:51:40;26.90;;;11.20;;
42978;SDS011;28616;44.746;19.678;2023-01-26T04:54:06;28.30;;;12.52;;
42978;SDS011;28616;44.746;19.678;2023-01-26T04:56:33;23.55;;;11.90;;
42978;SDS011;28616;44.746;19.678;2023-01-26T04:59:01;26.67;;;13.07;;
42978;SDS011;28616;44.746;19.678;2023-01-26T05:01:28;28.77;;;13.25;;
42978;SDS011;28616;44.746;19.678;2023-01-26T05:03:54;32.78;;;13.77;;
42978;SDS011;28616;44.746;19.678;2023-01-26T05:06:23;30.45;;;15.45;;
42978;SDS011;28616;44.746;19.678;2023-01-26T05:08:48;29.10;;;15.65;;
42978;SDS011;28616;44.746;19.678;2023-01-26T05:11:14;42.42;;;18.35;;
42978;SDS011;28616;44.746;19.678;2023-01-26T05:13:40;39.45;;;17.63;;
42978;SDS011;28616;44.746;19.678;2023-01-26T05:16:06;36.17;;;17.75;;
42978;SDS011;28616;44.746;19.678;2023-01-26T05:18:32;33.03;;;15.73;;
42978;SDS011;28616;44.746;19.678;2023-01-26T05:20:57;38.35;;;17.73;;
42978;SDS011;28616;44.746;19.678;2023-01-26T05:23:23;35.55;;;17.40;;
42978;SDS011;28616;44.746;19.678;2023-01-26T05:25:50;38.63;;;17.77;;
42978;SDS011;28616;44.746;19.678;2023-01-26T05:28:15;41.75;;;16.75;;
42978;SDS011;28616;44.746;19.678;2023-01-26T05:30:41;30.38;;;15.52;;
42978;SDS011;28616;44.746;19.678;2023-01-26T05:33:08;29.42;;;14.40;;
42978;SDS011;28616;44.746;19.678;2023-01-26T05:35:34;30.05;;;15.15;;
42978;SDS011;28616;44.746;19.678;2023-01-26T05:38:00;34.60;;;14.63;;
42978;SDS011;28616;44.746;19.678;2023-01-26T05:40:29;28.55;;;16.30;;
42978;SDS011;28616;44.746;19.678;2023-01-26T05:42:54;37.13;;;17.73;;
42978;SDS011;28616;44.746;19.678;2023-01-26T05:45:20;35.33;;;18.60;;
42978;SDS011;28616;44.746;19.678;2023-01-26T05:47:46;43.88;;;20.90;;
42978;SDS011;28616;44.746;19.678;2023-01-26T05:50:15;52.50;;;25.92;;
42978;SDS011;28616;44.746;19.678;2023-01-26T05:52:43;59.15;;;26.08;;
42978;SDS011;28616;44.746;19.678;2023-01-26T05:55:10;48.58;;;23.85;;
42978;SDS011;28616;44.746;19.678;2023-01-26T05:57:36;50.72;;;26.23;;
42978;SDS011;28616;44.746;19.678;2023-01-26T06:00:03;55.08;;;26.63;;
42978;SDS011;28616;44.746;19.678;2023-01-26T06:02:29;52.33;;;25.05;;
42978;SDS011;28616;44.746;19.678;2023-01-26T06:04:55;59.60;;;25.30;;
42978;SDS011;28616;44.746;19.678;2023-01-26T06:07:21;55.15;;;23.65;;
42978;SDS011;28616;44.746;19.678;2023-01-26T06:09:47;66.80;;;28.70;;
42978;SDS011;28616;44.746;19.678;2023-01-26T06:12:16;47.50;;;21.52;;
42978;SDS011;28616;44.746;19.678;2023-01-26T06:14:43;47.30;;;22.75;;
42978;SDS011;28616;44.746;19.678;2023-01-26T06:17:09;57.78;;;21.80;;
42978;SDS011;28616;44.746;19.678;2023-01-26T06:19:35;47.28;;;18.92;;
42978;SDS011;28616;44.746;19.678;2023-01-26T06:22:02;34.58;;;15.98;;
42978;SDS011;28616;44.746;19.678;2023-01-26T06:24:28;39.90;;;17.55;;
42978;SDS011;28616;44.746;19.678;2023-01-26T06:26:54;41.00;;;17.73;;
42978;SDS011;28616;44.746;19.678;2023-01-26T06:29:19;38.70;;;18.00;;
42978;SDS011;28616;44.746;19.678;2023-01-26T06:31:45;50.90;;;19.10;;
42978;SDS011;28616;44.746;19.678;2023-01-26T06:34:11;55.28;;;20.20;;
42978;SDS011;28616;44.746;19.678;2023-01-26T06:36:36;39.03;;;17.85;;
42978;SDS011;28616;44.746;19.678;2023-01-26T06:39:02;42.92;;;17.85;;
42978;SDS011;28616;44.746;19.678;2023-01-26T06:41:28;32.78;;;14.88;;
42978;SDS011;28616;44.746;19.678;2023-01-26T06:43:54;44.03;;;18.33;;
42978;SDS011;28616;44.746;19.678;2023-01-26T06:46:20;40.88;;;15.52;;
42978;SDS011;28616;44.746;19.678;2023-01-26T06:48:45;41.50;;;17.25;;
42978;SDS011;28616;44.746;19.678;2023-01-26T06:53:41;44.40;;;16.63;;
42978;SDS011;28616;44.746;19.678;2023-01-26T06:56:11;41.05;;;18.30;;
42978;SDS011;28616;44.746;19.678;2023-01-26T06:58:37;53.00;;;19.55;;
42978;SDS011;28616;44.746;19.678;2023-01-26T07:01:02;55.67;;;22.33;;
42978;SDS011;28616;44.746;19.678;2023-01-26T07:03:28;63.28;;;24.85;;
42978;SDS011;28616;44.746;19.678;2023-01-26T07:05:54;69.13;;;26.45;;
42978;SDS011;28616;44.746;19.678;2023-01-26T07:08:20;83.63;;;30.52;;
42978;SDS011;28616;44.746;19.678;2023-01-26T07:10:46;83.68;;;28.45;;
42978;SDS011;28616;44.746;19.678;2023-01-26T07:13:13;87.68;;;32.35;;
42978;SDS011;28616;44.746;19.678;2023-01-26T07:15:38;66.78;;;25.02;;
42978;SDS011;28616;44.746;19.678;2023-01-26T07:18:04;55.28;;;23.17;;
42978;SDS011;28616;44.746;19.678;2023-01-26T07:20:30;63.42;;;25.35;;
42978;SDS011;28616;44.746;19.678;2023-01-26T07:22:57;59.15;;;24.05;;
42978;SDS011;28616;44.746;19.678;2023-01-26T07:25:24;75.10;;;31.45;;
42978;SDS011;28616;44.746;19.678;2023-01-26T07:27:54;99.90;;;38.05;;
42978;SDS011;28616;44.746;19.678;2023-01-26T07:30:21;76.00;;;30.13;;
42978;SDS011;28616;44.746;19.678;2023-01-26T07:32:47;54.45;;;21.17;;
42978;SDS011;28616;44.746;19.678;2023-01-26T07:35:12;57.05;;;23.80;;
42978;SDS011;28616;44.746;19.678;2023-01-26T07:37:38;69.13;;;23.95;;
42978;SDS011;28616;44.746;19.678;2023-01-26T07:40:04;60.47;;;21.65;;
42978;SDS011;28616;44.746;19.678;2023-01-26T07:42:30;67.43;;;23.63;;
42978;SDS011;28616;44.746;19.678;2023-01-26T07:44:56;39.33;;;17.27;;
42978;SDS011;28616;44.746;19.678;2023-01-26T07:47:21;50.15;;;20.73;;
42978;SDS011;28616;44.746;19.678;2023-01-26T07:49:47;52.97;;;19.08;;
42978;SDS011;28616;44.746;19.678;2023-01-26T07:52:13;42.28;;;17.13;;
42978;SDS011;28616;44.746;19.678;2023-01-26T07:54:38;278.83;;;71.50;;
42978;SDS011;28616;44.746;19.678;2023-01-26T07:57:04;48.90;;;20.25;;
42978;SDS011;28616;44.746;19.678;2023-01-26T07:59:32;53.40;;;22.83;;
42978;SDS011;28616;44.746;19.678;2023-01-26T08:01:58;49.22;;;20.02;;
42978;SDS011;28616;44.746;19.678;2023-01-26T08:04:24;42.13;;;15.43;;
42978;SDS011;28616;44.746;19.678;2023-01-26T08:06:50;51.08;;;19.77;;
42978;SDS011;28616;44.746;19.678;2023-01-26T08:09:16;91.22;;;38.80;;
42978;SDS011;28616;44.746;19.678;2023-01-26T08:11:42;69.40;;;34.45;;
42978;SDS011;28616;44.746;19.678;2023-01-26T08:14:08;98.30;;;45.28;;
42978;SDS011;28616;44.746;19.678;2023-01-26T08:16:34;56.42;;;27.10;;
42978;SDS011;28616;44.746;19.678;2023-01-26T08:19:00;67.30;;;34.33;;
42978;SDS011;28616;44.746;19.678;2023-01-26T08:21:26;46.83;;;27.50;;
42978;SDS011;28616;44.746;19.678;2023-01-26T08:23:52;54.58;;;25.13;;
42978;SDS011;28616;44.746;19.678;2023-01-26T08:26:19;42.38;;;19.52;;
42978;SDS011;28616;44.746;19.678;2023-01-26T08:28:45;60.20;;;27.17;;
42978;SDS011;28616;44.746;19.678;2023-01-26T08:31:15;54.75;;;24.98;;
42978;SDS011;28616;44.746;19.678;2023-01-26T08:33:44;33.88;;;17.10;;
42978;SDS011;28616;44.746;19.678;2023-01-26T08:36:19;44.92;;;19.00;;
42978;SDS011;28616;44.746;19.678;2023-01-26T08:38:45;65.20;;;28.60;;
42978;SDS011;28616;44.746;19.678;2023-01-26T08:41:11;47.20;;;21.63;;
42978;SDS011;28616;44.746;19.678;2023-01-26T08:43:37;34.30;;;15.75;;
42978;SDS011;28616;44.746;19.678;2023-01-26T08:46:03;43.90;;;19.63;;
42978;SDS011;28616;44.746;19.678;2023-01-26T08:48:29;66.72;;;30.52;;
42978;SDS011;28616;44.746;19.678;2023-01-26T08:50:57;57.97;;;24.38;;
42978;SDS011;28616;44.746;19.678;2023-01-26T08:53:24;90.13;;;34.63;;
42978;SDS011;28616;44.746;19.678;2023-01-26T08:55:50;131.13;;;57.78;;
42978;SDS011;28616;44.746;19.678;2023-01-26T08:58:17;126.40;;;43.88;;
42978;SDS011;28616;44.746;19.678;2023-01-26T09:00:44;32.65;;;16.50;;
42978;SDS011;28616;44.746;19.678;2023-01-26T09:03:10;38.55;;;18.65;;
42978;SDS011;28616;44.746;19.678;2023-01-26T09:05:37;322.88;;;93.97;;
42978;SDS011;28616;44.746;19.678;2023-01-26T09:08:05;384.15;;;113.55;;
42978;SDS011;28616;44.746;19.678;2023-01-26T09:10:32;157.35;;;54.88;;
42978;SDS011;28616;44.746;19.678;2023-01-26T09:12:58;170.82;;;63.78;;
42978;SDS011;28616;44.746;19.678;2023-01-26T09:15:25;303.50;;;90.90;;
42978;SDS011;28616;44.746;19.678;2023-01-26T09:17:52;106.57;;;46.22;;
42978;SDS011;28616;44.746;19.678;2023-01-26T09:20:18;56.25;;;23.38;;
42978;SDS011;28616;44.746;19.678;2023-01-26T09:22:45;112.03;;;41.90;;
42978;SDS011;28616;44.746;19.678;2023-01-26T09:25:11;49.55;;;22.67;;
42978;SDS011;28616;44.746;19.678;2023-01-26T09:27:38;87.68;;;36.30;;
42978;SDS011;28616;44.746;19.678;2023-01-26T09:30:04;93.45;;;41.63;;
42978;SDS011;28616;44.746;19.678;2023-01-26T09:32:31;44.88;;;20.38;;
42978;SDS011;28616;44.746;19.678;2023-01-26T09:34:57;87.93;;;43.03;;
42978;SDS011;28616;44.746;19.678;2023-01-26T09:37:23;93.47;;;42.88;;
42978;SDS011;28616;44.746;19.678;2023-01-26T09:39:49;58.63;;;24.27;;
42978;SDS011;28616;44.746;19.678;2023-01-26T09:47:54;63.88;;;28.70;;
42978;SDS011;28616;44.746;19.678;2023-01-26T09:53:42;69.85;;;29.77;;
42978;SDS011;28616;44.746;19.678;2023-01-26T09:56:14;73.53;;;32.20;;
42978;SDS011;28616;44.746;19.678;2023-01-26T09:58:46;111.63;;;45.53;;
42978;SDS011;28616;44.746;19.678;2023-01-26T10:01:44;46.25;;;19.92;;
42978;SDS011;28616;44.746;19.678;2023-01-26T10:04:29;82.80;;;36.90;;
42978;SDS011;28616;44.746;19.678;2023-01-26T10:07:10;96.05;;;40.67;;
42978;SDS011;28616;44.746;19.678;2023-01-26T10:09:38;181.10;;;70.95;;
42978;SDS011;28616;44.746;19.678;2023-01-26T10:12:14;117.50;;;47.75;;
42978;SDS011;28616;44.746;19.678;2023-01-26T10:17:18;89.55;;;35.80;;
42978;SDS011;28616;44.746;19.678;2023-01-26T10:19:51;126.30;;;47.25;;
42978;SDS011;28616;44.746;19.678;2023-01-26T10:22:23;284.42;;;101.55;;
42978;SDS011;28616;44.746;19.678;2023-01-26T10:24:55;77.38;;;33.47;;
42978;SDS011;28616;44.746;19.678;2023-01-26T10:27:23;311.10;;;119.82;;
42978;SDS011;28616;44.746;19.678;2023-01-26T10:29:48;103.28;;;42.47;;
42978;SDS011;28616;44.746;19.678;2023-01-26T10:32:15;258.75;;;102.00;;
42978;SDS011;28616;44.746;19.678;2023-01-26T10:34:43;176.50;;;70.82;;
42978;SDS011;28616;44.746;19.678;2023-01-26T10:37:16;148.95;;;57.13;;
42978;SDS011;28616;44.746;19.678;2023-01-26T10:40:00;64.97;;;29.35;;
42978;SDS011;28616;44.746;19.678;2023-01-26T10:42:34;100.50;;;49.30;;
42978;SDS011;28616;44.746;19.678;2023-01-26T10:45:02;53.15;;;26.40;;
42978;SDS011;28616;44.746;19.678;2023-01-26T10:48:21;45.38;;;20.70;;
42978;SDS011;28616;44.746;19.678;2023-01-26T10:50:44;61.20;;;24.58;;
42978;SDS011;28616;44.746;19.678;2023-01-26T10:53:15;49.35;;;18.13;;
42978;SDS011;28616;44.746;19.678;2023-01-26T10:55:43;111.75;;;47.95;;
42978;SDS011;28616;44.746;19.678;2023-01-26T10:58:35;40.30;;;19.98;;
42978;SDS011;28616;44.746;19.678;2023-01-26T11:01:05;46.75;;;24.17;;
42978;SDS011;28616;44.746;19.678;2023-01-26T11:03:36;54.55;;;25.80;;
42978;SDS011;28616;44.746;19.678;2023-01-26T11:06:04;59.10;;;29.38;;
42978;SDS011;28616;44.746;19.678;2023-01-26T11:08:41;78.50;;;38.45;;
42978;SDS011;28616;44.746;19.678;2023-01-26T11:14:16;60.28;;;28.33;;
42978;SDS011;28616;44.746;19.678;2023-01-26T11:16:46;43.65;;;18.20;;
42978;SDS011;28616;44.746;19.678;2023-01-26T11:23:03;54.88;;;25.52;;
42978;SDS011;28616;44.746;19.678;2023-01-26T11:25:34;61.72;;;27.02;;
42978;SDS011;28616;44.746;19.678;2023-01-26T11:31:07;67.93;;;31.05;;
42978;SDS011;28616;44.746;19.678;2023-01-26T11:33:57;68.10;;;30.05;;
42978;SDS011;28616;44.746;19.678;2023-01-26T11:39:29;99.00;;;38.50;;
42978;SDS011;28616;44.746;19.678;2023-01-26T11:42:12;68.05;;;29.90;;
42978;SDS011;28616;44.746;19.678;2023-01-26T11:53:08;63.35;;;27.40;;
42978;SDS011;28616;44.746;19.678;2023-01-26T11:59:14;53.55;;;28.15;;
42978;SDS011;28616;44.746;19.678;2023-01-26T12:01:30;69.25;;;35.70;;
42978;SDS011;28616;44.746;19.678;2023-01-26T12:04:00;65.63;;;31.90;;
42978;SDS011;28616;44.746;19.678;2023-01-26T12:08:52;43.95;;;22.75;;
42978;SDS011;28616;44.746;19.678;2023-01-26T12:16:25;69.07;;;35.80;;
42978;SDS011;28616;44.746;19.678;2023-01-26T12:21:37;37.42;;;17.95;;
42978;SDS011;28616;44.746;19.678;2023-01-26T12:24:10;42.28;;;16.92;;
42978;SDS011;28616;44.746;19.678;2023-01-26T12:26:44;67.20;;;28.40;;
42978;SDS011;28616;44.746;19.678;2023-01-26T12:29:14;59.55;;;25.77;;
42978;SDS011;28616;44.746;19.678;2023-01-26T12:31:52;107.80;;;41.22;;
42978;SDS011;28616;44.746;19.678;2023-01-26T12:34:22;60.92;;;27.70;;
42978;SDS011;28616;44.746;19.678;2023-01-26T12:39:43;119.57;;;47.20;;
42978;SDS011;28616;44.746;19.678;2023-01-26T12:44:58;44.20;;;21.35;;
42978;SDS011;28616;44.746;19.678;2023-01-26T12:52:45;65.05;;;25.85;;
42978;SDS011;28616;44.746;19.678;2023-01-26T12:55:18;109.88;;;44.72;;
42978;SDS011;28616;44.746;19.678;2023-01-26T12:57:57;57.25;;;25.55;;
42978;SDS011;28616;44.746;19.678;2023-01-26T13:00:25;106.57;;;40.70;;
42978;SDS011;28616;44.746;19.678;2023-01-26T13:02:59;68.47;;;30.65;;
42978;SDS011;28616;44.746;19.678;2023-01-26T13:05:40;147.30;;;55.10;;
42978;SDS011;28616;44.746;19.678;2023-01-26T13:08:59;160.52;;;64.72;;
42978;SDS011;28616;44.746;19.678;2023-01-26T13:12:00;122.35;;;55.53;;
42978;SDS011;28616;44.746;19.678;2023-01-26T13:14:31;51.58;;;26.08;;
42978;SDS011;28616;44.746;19.678;2023-01-26T13:16:57;74.85;;;35.92;;
42978;SDS011;28616;44.746;19.678;2023-01-26T13:29:55;49.17;;;23.83;;
42978;SDS011;28616;44.746;19.678;2023-01-26T13:34:50;65.45;;;28.75;;
42978;SDS011;28616;44.746;19.678;2023-01-26T13:39:59;53.83;;;25.08;;
42978;SDS011;28616;44.746;19.678;2023-01-26T13:45:19;65.60;;;32.97;;
42978;SDS011;28616;44.746;19.678;2023-01-26T13:47:49;68.75;;;31.98;;
42978;SDS011;28616;44.746;19.678;2023-01-26T13:50:29;77.50;;;35.40;;
42978;SDS011;28616;44.746;19.678;2023-01-26T13:52:57;92.25;;;40.33;;
42978;SDS011;28616;44.746;19.678;2023-01-26T13:55:26;54.13;;;29.80;;
42978;SDS011;28616;44.746;19.678;2023-01-26T13:58:12;79.93;;;34.97;;
42978;SDS011;28616;44.746;19.678;2023-01-26T14:00:39;54.03;;;27.63;;
42978;SDS011;28616;44.746;19.678;2023-01-26T14:03:16;223.93;;;73.68;;
42978;SDS011;28616;44.746;19.678;2023-01-26T14:05:50;249.45;;;85.03;;
42978;SDS011;28616;44.746;19.678;2023-01-26T14:08:21;570.33;;;187.93;;
42978;SDS011;28616;44.746;19.678;2023-01-26T14:10:48;127.80;;;57.60;;
42978;SDS011;28616;44.746;19.678;2023-01-26T14:16:32;211.98;;;82.43;;
42978;SDS011;28616;44.746;19.678;2023-01-26T14:19:09;223.80;;;90.80;;
42978;SDS011;28616;44.746;19.678;2023-01-26T14:21:56;163.98;;;67.05;;
42978;SDS011;28616;44.746;19.678;2023-01-26T14:24:30;216.00;;;87.03;;
42978;SDS011;28616;44.746;19.678;2023-01-26T14:26:58;125.75;;;55.50;;
42978;SDS011;28616;44.746;19.678;2023-01-26T14:29:26;103.90;;;45.28;;
42978;SDS011;28616;44.746;19.678;2023-01-26T14:31:54;152.65;;;57.88;;
42978;SDS011;28616;44.746;19.678;2023-01-26T14:34:25;82.93;;;40.92;;
42978;SDS011;28616;44.746;19.678;2023-01-26T14:37:06;103.32;;;48.53;;
42978;SDS011;28616;44.746;19.678;2023-01-26T14:39:37;131.18;;;64.32;;
42978;SDS011;28616;44.746;19.678;2023-01-26T14:42:04;51.78;;;29.65;;
42978;SDS011;28616;44.746;19.678;2023-01-26T14:44:30;78.60;;;40.88;;
42978;SDS011;28616;44.746;19.678;2023-01-26T14:52:25;38.95;;;19.25;;
42978;SDS011;28616;44.746;19.678;2023-01-26T14:54:54;39.00;;;21.83;;
42978;SDS011;28616;44.746;19.678;2023-01-26T14:57:23;52.63;;;26.20;;
42978;SDS011;28616;44.746;19.678;2023-01-26T14:59:52;86.47;;;43.58;;
42978;SDS011;28616;44.746;19.678;2023-01-26T15:02:21;71.07;;;34.05;;
42978;SDS011;28616;44.746;19.678;2023-01-26T15:15:28;84.13;;;41.53;;
42978;SDS011;28616;44.746;19.678;2023-01-26T15:20:37;80.57;;;40.15;;
42978;SDS011;28616;44.746;19.678;2023-01-26T15:26:06;107.75;;;51.10;;
42978;SDS011;28616;44.746;19.678;2023-01-26T15:28:33;102.03;;;51.92;;
42978;SDS011;28616;44.746;19.678;2023-01-26T15:31:00;147.23;;;66.28;;
42978;SDS011;28616;44.746;19.678;2023-01-26T15:39:22;78.10;;;38.88;;
42978;SDS011;28616;44.746;19.678;2023-01-26T15:42:10;116.85;;;54.13;;
42978;SDS011;28616;44.746;19.678;2023-01-26T15:44:38;98.40;;;47.85;;
42978;SDS011;28616;44.746;19.678;2023-01-26T15:47:06;102.05;;;51.22;;
42978;SDS011;28616;44.746;19.678;2023-01-26T15:49:33;123.03;;;57.72;;
42978;SDS011;28616;44.746;19.678;2023-01-26T15:51:59;118.80;;;56.25;;
42978;SDS011;28616;44.746;19.678;2023-01-26T15:54:25;123.68;;;56.35;;
42978;SDS011;28616;44.746;19.678;2023-01-26T15:56:50;135.43;;;63.45;;
42978;SDS011;28616;44.746;19.678;2023-01-26T15:59:16;178.68;;;83.32;;
42978;SDS011;28616;44.746;19.678;2023-01-26T16:01:41;242.07;;;113.97;;
42978;SDS011;28616;44.746;19.678;2023-01-26T16:04:10;256.95;;;131.05;;
42978;SDS011;28616;44.746;19.678;2023-01-26T16:06:37;92.90;;;46.03;;
42978;SDS011;28616;44.746;19.678;2023-01-26T16:09:03;117.10;;;62.78;;
42978;SDS011;28616;44.746;19.678;2023-01-26T16:11:30;139.65;;;66.30;;
42978;SDS011;28616;44.746;19.678;2023-01-26T16:13:59;246.97;;;91.67;;
42978;SDS011;28616;44.746;19.678;2023-01-26T16:16:26;198.50;;;78.68;;